Terminal Aerodrome Forecast
Issued by NWS Bismarck, ND

Home | Current Version | Previous Version | Text Only | Print | Product List | Glossary On
Versions: 1 2 3 4 5 6 7 8 9 10 11 12 13 14 15 16 17 18 19 20
000
FTUS43 KBIS 300522
TAFISN
TAF
KISN 300522Z 3006/3106 VRB03KT P6SM SCT100 SCT200
     FM301500 32004KT P6SM -SHRA OVC090
     FM301800 33010KT 5SM SHRA VCTS OVC035CB
     FM302100 33009KT P6SM -SHRA OVC025
     FM310300 29005KT P6SM BKN110=

USA.gov is the U.S. government's official web portal to all federal, state and local government web resources and services.